sensor_id;sensor_type;location;lat;lon;timestamp;temperature;humidity
17331;DHT22;8783;52.448;4.638;2023-11-22T00:00:40;17.30;99.90
17331;DHT22;8783;52.448;4.638;2023-11-22T00:03:06;17.30;99.90
17331;DHT22;8783;52.448;4.638;2023-11-22T00:05:32;17.30;99.90
17331;DHT22;8783;52.448;4.638;2023-11-22T00:07:57;17.30;99.90
17331;DHT22;8783;52.448;4.638;2023-11-22T00:10:23;17.30;99.90
17331;DHT22;8783;52.448;4.638;2023-11-22T00:12:49;17.20;99.90
17331;DHT22;8783;52.448;4.638;2023-11-22T00:15:15;17.20;99.90
17331;DHT22;8783;52.448;4.638;2023-11-22T00:17:46;17.20;99.90
17331;DHT22;8783;52.448;4.638;2023-11-22T00:20:15;17.20;99.90
17331;DHT22;8783;52.448;4.638;2023-11-22T00:22:43;17.20;99.90
17331;DHT22;8783;52.448;4.638;2023-11-22T00:25:10;17.20;99.90
17331;DHT22;8783;52.448;4.638;2023-11-22T00:27:38;17.20;99.90
17331;DHT22;8783;52.448;4.638;2023-11-22T00:30:05;17.20;99.90
17331;DHT22;8783;52.448;4.638;2023-11-22T00:32:31;17.20;99.90
17331;DHT22;8783;52.448;4.638;2023-11-22T00:34:57;17.20;99.90
17331;DHT22;8783;52.448;4.638;2023-11-22T00:37:23;17.20;99.90
17331;DHT22;8783;52.448;4.638;2023-11-22T00:39:48;17.20;99.90
17331;DHT22;8783;52.448;4.638;2023-11-22T00:42:14;17.20;99.90
17331;DHT22;8783;52.448;4.638;2023-11-22T00:44:40;17.10;99.90
17331;DHT22;8783;52.448;4.638;2023-11-22T00:47:05;17.10;99.90
17331;DHT22;8783;52.448;4.638;2023-11-22T00:49:31;17.10;99.90
17331;DHT22;8783;52.448;4.638;2023-11-22T00:51:57;17.10;99.90
17331;DHT22;8783;52.448;4.638;2023-11-22T00:54:23;17.10;99.90
17331;DHT22;8783;52.448;4.638;2023-11-22T00:56:50;17.10;99.90
17331;DHT22;8783;52.448;4.638;2023-11-22T00:59:16;17.10;99.90
17331;DHT22;8783;52.448;4.638;2023-11-22T01:01:41;17.10;99.90
17331;DHT22;8783;52.448;4.638;2023-11-22T01:04:07;17.10;99.90
17331;DHT22;8783;52.448;4.638;2023-11-22T01:06:33;17.00;99.90
17331;DHT22;8783;52.448;4.638;2023-11-22T01:09:00;17.00;99.90
17331;DHT22;8783;52.448;4.638;2023-11-22T01:11:25;17.10;99.90
17331;DHT22;8783;52.448;4.638;2023-11-22T01:13:51;17.00;99.90
17331;DHT22;8783;52.448;4.638;2023-11-22T01:16:17;17.00;99.90
17331;DHT22;8783;52.448;4.638;2023-11-22T01:18:42;17.00;99.90
17331;DHT22;8783;52.448;4.638;2023-11-22T01:21:09;17.00;99.90
17331;DHT22;8783;52.448;4.638;2023-11-22T01:23:34;17.00;99.90
17331;DHT22;8783;52.448;4.638;2023-11-22T01:26:00;17.00;99.90
17331;DHT22;8783;52.448;4.638;2023-11-22T01:28:29;17.00;99.90
17331;DHT22;8783;52.448;4.638;2023-11-22T01:31:00;17.00;99.90
17331;DHT22;8783;52.448;4.638;2023-11-22T01:33:26;17.00;99.90
17331;DHT22;8783;52.448;4.638;2023-11-22T01:35:52;16.90;99.90
17331;DHT22;8783;52.448;4.638;2023-11-22T01:38:18;17.00;99.90
17331;DHT22;8783;52.448;4.638;2023-11-22T01:40:44;17.00;99.90
17331;DHT22;8783;52.448;4.638;2023-11-22T01:43:18;16.90;99.90
17331;DHT22;8783;52.448;4.638;2023-11-22T01:45:44;16.90;99.90
17331;DHT22;8783;52.448;4.638;2023-11-22T01:48:11;16.90;99.90
17331;DHT22;8783;52.448;4.638;2023-11-22T01:50:40;16.90;99.90
17331;DHT22;8783;52.448;4.638;2023-11-22T01:53:11;16.90;99.90
17331;DHT22;8783;52.448;4.638;2023-11-22T01:55:39;16.90;99.90
17331;DHT22;8783;52.448;4.638;2023-11-22T01:58:05;16.90;99.90
17331;DHT22;8783;52.448;4.638;2023-11-22T02:00:45;16.90;99.90
17331;DHT22;8783;52.448;4.638;2023-11-22T02:03:11;16.90;99.90
17331;DHT22;8783;52.448;4.638;2023-11-22T02:05:40;16.90;99.90
17331;DHT22;8783;52.448;4.638;2023-11-22T02:08:10;16.90;99.90
17331;DHT22;8783;52.448;4.638;2023-11-22T02:10:36;16.90;99.90
17331;DHT22;8783;52.448;4.638;2023-11-22T02:13:05;16.90;99.90
17331;DHT22;8783;52.448;4.638;2023-11-22T02:15:34;16.80;99.90
17331;DHT22;8783;52.448;4.638;2023-11-22T02:17:59;16.90;99.90
17331;DHT22;8783;52.448;4.638;2023-11-22T02:20:25;16.80;99.90
17331;DHT22;8783;52.448;4.638;2023-11-22T02:22:51;16.80;99.90
17331;DHT22;8783;52.448;4.638;2023-11-22T02:25:18;16.80;99.90
17331;DHT22;8783;52.448;4.638;2023-11-22T02:27:44;16.80;99.90
17331;DHT22;8783;52.448;4.638;2023-11-22T02:30:10;16.80;99.90
17331;DHT22;8783;52.448;4.638;2023-11-22T02:32:36;16.80;99.90
17331;DHT22;8783;52.448;4.638;2023-11-22T02:35:02;16.80;99.90
17331;DHT22;8783;52.448;4.638;2023-11-22T02:37:32;16.80;99.90
17331;DHT22;8783;52.448;4.638;2023-11-22T02:40:00;16.80;99.90
17331;DHT22;8783;52.448;4.638;2023-11-22T02:42:29;16.80;99.90
17331;DHT22;8783;52.448;4.638;2023-11-22T02:44:55;16.80;99.90
17331;DHT22;8783;52.448;4.638;2023-11-22T02:47:22;16.80;99.90
17331;DHT22;8783;52.448;4.638;2023-11-22T02:49:47;16.80;99.90
17331;DHT22;8783;52.448;4.638;2023-11-22T02:52:13;16.80;99.90
17331;DHT22;8783;52.448;4.638;2023-11-22T02:54:44;16.80;99.90
17331;DHT22;8783;52.448;4.638;2023-11-22T02:57:13;16.80;99.90
17331;DHT22;8783;52.448;4.638;2023-11-22T02:59:42;16.80;99.90
17331;DHT22;8783;52.448;4.638;2023-11-22T03:02:08;16.70;99.90
17331;DHT22;8783;52.448;4.638;2023-11-22T03:04:36;16.80;99.90
17331;DHT22;8783;52.448;4.638;2023-11-22T03:07:02;16.70;99.90
17331;DHT22;8783;52.448;4.638;2023-11-22T03:09:27;16.80;99.90
17331;DHT22;8783;52.448;4.638;2023-11-22T03:11:54;16.70;99.90
17331;DHT22;8783;52.448;4.638;2023-11-22T03:14:19;16.70;99.90
17331;DHT22;8783;52.448;4.638;2023-11-22T03:16:45;16.70;99.90
17331;DHT22;8783;52.448;4.638;2023-11-22T03:19:11;16.70;99.90
17331;DHT22;8783;52.448;4.638;2023-11-22T03:21:39;16.70;99.90
17331;DHT22;8783;52.448;4.638;2023-11-22T03:24:07;16.70;99.90
17331;DHT22;8783;52.448;4.638;2023-11-22T03:26:34;16.70;99.90
17331;DHT22;8783;52.448;4.638;2023-11-22T03:29:00;16.70;99.90
17331;DHT22;8783;52.448;4.638;2023-11-22T03:31:26;16.70;99.90
17331;DHT22;8783;52.448;4.638;2023-11-22T03:33:52;16.70;99.90
17331;DHT22;8783;52.448;4.638;2023-11-22T03:36:18;16.70;99.90
17331;DHT22;8783;52.448;4.638;2023-11-22T03:38:44;16.70;99.90
17331;DHT22;8783;52.448;4.638;2023-11-22T03:41:10;16.70;99.90
17331;DHT22;8783;52.448;4.638;2023-11-22T03:43:35;16.70;99.90
17331;DHT22;8783;52.448;4.638;2023-11-22T03:46:02;16.70;99.90
17331;DHT22;8783;52.448;4.638;2023-11-22T03:48:27;16.70;99.90
17331;DHT22;8783;52.448;4.638;2023-11-22T03:50:53;16.70;99.90
17331;DHT22;8783;52.448;4.638;2023-11-22T03:53:19;16.70;99.90
17331;DHT22;8783;52.448;4.638;2023-11-22T03:55:47;16.70;99.90
17331;DHT22;8783;52.448;4.638;2023-11-22T03:58:13;16.70;99.90
17331;DHT22;8783;52.448;4.638;2023-11-22T04:00:39;16.70;99.90
17331;DHT22;8783;52.448;4.638;2023-11-22T04:03:04;16.60;99.90
17331;DHT22;8783;52.448;4.638;2023-11-22T04:05:32;16.60;99.90
17331;DHT22;8783;52.448;4.638;2023-11-22T04:07:58;16.60;99.90
17331;DHT22;8783;52.448;4.638;2023-11-22T04:10:24;16.60;99.90
17331;DHT22;8783;52.448;4.638;2023-11-22T04:12:50;16.60;99.90
17331;DHT22;8783;52.448;4.638;2023-11-22T04:15:16;16.60;99.90
17331;DHT22;8783;52.448;4.638;2023-11-22T04:17:41;16.60;99.90
17331;DHT22;8783;52.448;4.638;2023-11-22T04:20:08;16.60;99.90
17331;DHT22;8783;52.448;4.638;2023-11-22T04:22:35;16.60;99.90
17331;DHT22;8783;52.448;4.638;2023-11-22T04:25:00;16.60;99.90
17331;DHT22;8783;52.448;4.638;2023-11-22T04:27:27;16.60;99.90
17331;DHT22;8783;52.448;4.638;2023-11-22T04:29:53;16.60;99.90
17331;DHT22;8783;52.448;4.638;2023-11-22T04:32:19;16.60;99.90
17331;DHT22;8783;52.448;4.638;2023-11-22T04:34:45;16.60;99.90
17331;DHT22;8783;52.448;4.638;2023-11-22T04:37:11;16.60;99.90
17331;DHT22;8783;52.448;4.638;2023-11-22T04:39:36;16.60;99.90
17331;DHT22;8783;52.448;4.638;2023-11-22T04:42:02;16.60;99.90
17331;DHT22;8783;52.448;4.638;2023-11-22T04:44:27;16.60;99.90
17331;DHT22;8783;52.448;4.638;2023-11-22T04:46:53;16.60;99.90
17331;DHT22;8783;52.448;4.638;2023-11-22T04:49:19;16.60;99.90
17331;DHT22;8783;52.448;4.638;2023-11-22T04:51:45;16.60;99.90
17331;DHT22;8783;52.448;4.638;2023-11-22T04:54:11;16.60;99.90
17331;DHT22;8783;52.448;4.638;2023-11-22T04:56:37;16.60;99.90
17331;DHT22;8783;52.448;4.638;2023-11-22T04:59:02;16.60;99.90
17331;DHT22;8783;52.448;4.638;2023-11-22T05:01:32;16.60;99.90
17331;DHT22;8783;52.448;4.638;2023-11-22T05:03:58;16.60;99.90
17331;DHT22;8783;52.448;4.638;2023-11-22T05:06:24;16.50;99.90
17331;DHT22;8783;52.448;4.638;2023-11-22T05:08:51;16.50;99.90
17331;DHT22;8783;52.448;4.638;2023-11-22T05:11:17;16.50;99.90
17331;DHT22;8783;52.448;4.638;2023-11-22T05:13:43;16.50;99.90
17331;DHT22;8783;52.448;4.638;2023-11-22T05:16:09;16.50;99.90
17331;DHT22;8783;52.448;4.638;2023-11-22T05:18:35;16.50;99.90
17331;DHT22;8783;52.448;4.638;2023-11-22T05:21:03;16.60;99.90
17331;DHT22;8783;52.448;4.638;2023-11-22T05:23:30;16.50;99.90
17331;DHT22;8783;52.448;4.638;2023-11-22T05:25:56;16.50;99.90
17331;DHT22;8783;52.448;4.638;2023-11-22T05:28:22;16.50;99.90
17331;DHT22;8783;52.448;4.638;2023-11-22T05:30:48;16.50;99.90
17331;DHT22;8783;52.448;4.638;2023-11-22T05:33:14;16.50;99.90
17331;DHT22;8783;52.448;4.638;2023-11-22T05:35:39;16.50;99.90
17331;DHT22;8783;52.448;4.638;2023-11-22T05:38:06;16.50;99.90
17331;DHT22;8783;52.448;4.638;2023-11-22T05:40:33;16.50;99.90
17331;DHT22;8783;52.448;4.638;2023-11-22T05:42:59;16.50;99.90
17331;DHT22;8783;52.448;4.638;2023-11-22T05:45:24;16.50;99.90
17331;DHT22;8783;52.448;4.638;2023-11-22T05:47:53;16.50;99.90
17331;DHT22;8783;52.448;4.638;2023-11-22T05:50:18;16.50;99.90
17331;DHT22;8783;52.448;4.638;2023-11-22T05:52:44;16.50;99.90
17331;DHT22;8783;52.448;4.638;2023-11-22T05:55:10;16.50;99.90
17331;DHT22;8783;52.448;4.638;2023-11-22T05:57:40;16.50;99.90
17331;DHT22;8783;52.448;4.638;2023-11-22T06:00:07;16.50;99.90
17331;DHT22;8783;52.448;4.638;2023-11-22T06:02:33;16.50;99.90
17331;DHT22;8783;52.448;4.638;2023-11-22T06:04:58;16.40;99.90
17331;DHT22;8783;52.448;4.638;2023-11-22T06:07:24;16.50;99.90
17331;DHT22;8783;52.448;4.638;2023-11-22T06:09:53;16.50;99.90
17331;DHT22;8783;52.448;4.638;2023-11-22T06:12:18;16.50;99.90
17331;DHT22;8783;52.448;4.638;2023-11-22T06:14:47;16.50;99.90
17331;DHT22;8783;52.448;4.638;2023-11-22T06:17:13;16.50;99.90
17331;DHT22;8783;52.448;4.638;2023-11-22T06:19:40;16.50;99.90
17331;DHT22;8783;52.448;4.638;2023-11-22T06:22:06;16.50;99.90
17331;DHT22;8783;52.448;4.638;2023-11-22T06:24:32;16.50;99.90
17331;DHT22;8783;52.448;4.638;2023-11-22T06:26:59;16.50;99.90
17331;DHT22;8783;52.448;4.638;2023-11-22T06:29:24;16.50;99.90
17331;DHT22;8783;52.448;4.638;2023-11-22T06:31:50;16.50;99.90
17331;DHT22;8783;52.448;4.638;2023-11-22T06:34:16;16.60;99.90
17331;DHT22;8783;52.448;4.638;2023-11-22T06:36:42;16.60;99.90
17331;DHT22;8783;52.448;4.638;2023-11-22T06:39:07;16.60;99.90
17331;DHT22;8783;52.448;4.638;2023-11-22T06:41:34;16.60;99.90
17331;DHT22;8783;52.448;4.638;2023-11-22T06:44:00;16.60;99.90
17331;DHT22;8783;52.448;4.638;2023-11-22T06:46:26;16.60;99.90
17331;DHT22;8783;52.448;4.638;2023-11-22T06:48:54;16.60;99.90
17331;DHT22;8783;52.448;4.638;2023-11-22T06:51:24;16.60;99.90
17331;DHT22;8783;52.448;4.638;2023-11-22T06:53:49;16.60;99.90
17331;DHT22;8783;52.448;4.638;2023-11-22T06:56:17;16.70;99.90
17331;DHT22;8783;52.448;4.638;2023-11-22T06:58:43;16.70;99.90
17331;DHT22;8783;52.448;4.638;2023-11-22T07:01:08;16.70;99.90
17331;DHT22;8783;52.448;4.638;2023-11-22T07:03:36;16.70;99.90
17331;DHT22;8783;52.448;4.638;2023-11-22T07:06:01;16.70;99.90
17331;DHT22;8783;52.448;4.638;2023-11-22T07:08:27;16.70;99.90
17331;DHT22;8783;52.448;4.638;2023-11-22T07:10:53;16.60;99.90
17331;DHT22;8783;52.448;4.638;2023-11-22T07:13:19;16.60;99.90
17331;DHT22;8783;52.448;4.638;2023-11-22T07:15:45;16.60;99.90
17331;DHT22;8783;52.448;4.638;2023-11-22T07:18:10;16.50;99.90
17331;DHT22;8783;52.448;4.638;2023-11-22T07:20:37;16.50;99.90
17331;DHT22;8783;52.448;4.638;2023-11-22T07:23:04;16.50;99.90
17331;DHT22;8783;52.448;4.638;2023-11-22T07:25:30;16.50;99.90
17331;DHT22;8783;52.448;4.638;2023-11-22T07:27:57;16.50;99.90
17331;DHT22;8783;52.448;4.638;2023-11-22T07:30:23;16.40;99.90
17331;DHT22;8783;52.448;4.638;2023-11-22T07:32:50;16.50;99.90
17331;DHT22;8783;52.448;4.638;2023-11-22T07:35:17;16.50;99.90
17331;DHT22;8783;52.448;4.638;2023-11-22T07:37:45;16.50;99.90
17331;DHT22;8783;52.448;4.638;2023-11-22T07:40:11;16.40;99.90
17331;DHT22;8783;52.448;4.638;2023-11-22T07:42:39;16.40;99.90
17331;DHT22;8783;52.448;4.638;2023-11-22T07:45:05;16.40;99.90
17331;DHT22;8783;52.448;4.638;2023-11-22T07:47:31;16.40;99.90
17331;DHT22;8783;52.448;4.638;2023-11-22T07:49:57;16.40;99.90
17331;DHT22;8783;52.448;4.638;2023-11-22T07:52:26;16.40;99.90
17331;DHT22;8783;52.448;4.638;2023-11-22T07:54:58;16.40;99.90
17331;DHT22;8783;52.448;4.638;2023-11-22T07:57:25;16.40;99.90
17331;DHT22;8783;52.448;4.638;2023-11-22T07:59:50;16.40;99.90
17331;DHT22;8783;52.448;4.638;2023-11-22T08:02:20;16.40;99.90
17331;DHT22;8783;52.448;4.638;2023-11-22T08:04:46;16.30;99.90
17331;DHT22;8783;52.448;4.638;2023-11-22T08:07:13;16.40;99.90
17331;DHT22;8783;52.448;4.638;2023-11-22T08:09:43;16.40;99.90
17331;DHT22;8783;52.448;4.638;2023-11-22T08:12:09;16.30;99.90
17331;DHT22;8783;52.448;4.638;2023-11-22T08:14:37;16.40;99.90
17331;DHT22;8783;52.448;4.638;2023-11-22T08:17:02;16.30;99.90
17331;DHT22;8783;52.448;4.638;2023-11-22T08:19:29;16.30;99.90
17331;DHT22;8783;52.448;4.638;2023-11-22T08:21:55;16.30;99.90
17331;DHT22;8783;52.448;4.638;2023-11-22T08:24:20;16.40;99.90
17331;DHT22;8783;52.448;4.638;2023-11-22T08:26:46;16.30;99.90
17331;DHT22;8783;52.448;4.638;2023-11-22T08:29:12;16.30;99.90
17331;DHT22;8783;52.448;4.638;2023-11-22T08:31:37;16.30;99.90
17331;DHT22;8783;52.448;4.638;2023-11-22T08:34:03;16.30;99.90
17331;DHT22;8783;52.448;4.638;2023-11-22T08:36:32;16.30;99.90
17331;DHT22;8783;52.448;4.638;2023-11-22T08:39:00;16.30;99.90
17331;DHT22;8783;52.448;4.638;2023-11-22T08:41:29;16.30;99.90
17331;DHT22;8783;52.448;4.638;2023-11-22T08:43:56;16.30;99.90
17331;DHT22;8783;52.448;4.638;2023-11-22T08:46:22;16.30;99.90
17331;DHT22;8783;52.448;4.638;2023-11-22T08:48:49;16.30;99.90
17331;DHT22;8783;52.448;4.638;2023-11-22T08:51:16;16.30;99.90
17331;DHT22;8783;52.448;4.638;2023-11-22T08:53:43;16.30;99.90
17331;DHT22;8783;52.448;4.638;2023-11-22T08:56:10;16.30;99.90
17331;DHT22;8783;52.448;4.638;2023-11-22T08:58:39;16.30;99.90
17331;DHT22;8783;52.448;4.638;2023-11-22T09:01:06;16.30;99.90
17331;DHT22;8783;52.448;4.638;2023-11-22T09:03:33;16.30;99.90
17331;DHT22;8783;52.448;4.638;2023-11-22T09:05:58;16.30;99.90
17331;DHT22;8783;52.448;4.638;2023-11-22T09:08:25;16.30;99.90
17331;DHT22;8783;52.448;4.638;2023-11-22T09:10:51;16.30;99.90
17331;DHT22;8783;52.448;4.638;2023-11-22T09:13:17;16.30;99.90
17331;DHT22;8783;52.448;4.638;2023-11-22T09:15:44;16.30;99.90
17331;DHT22;8783;52.448;4.638;2023-11-22T09:18:10;16.30;99.90
17331;DHT22;8783;52.448;4.638;2023-11-22T09:20:38;16.30;99.90
17331;DHT22;8783;52.448;4.638;2023-11-22T09:23:03;16.30;99.90
17331;DHT22;8783;52.448;4.638;2023-11-22T09:25:30;16.30;99.90
17331;DHT22;8783;52.448;4.638;2023-11-22T09:27:57;16.30;99.90
17331;DHT22;8783;52.448;4.638;2023-11-22T09:30:30;16.30;99.90
17331;DHT22;8783;52.448;4.638;2023-11-22T09:33:11;16.30;99.90
17331;DHT22;8783;52.448;4.638;2023-11-22T09:35:40;16.30;99.90
17331;DHT22;8783;52.448;4.638;2023-11-22T09:38:08;16.30;99.90
17331;DHT22;8783;52.448;4.638;2023-11-22T09:40:41;16.30;99.90
17331;DHT22;8783;52.448;4.638;2023-11-22T09:43:07;16.30;99.90
17331;DHT22;8783;52.448;4.638;2023-11-22T09:45:33;16.30;99.90
17331;DHT22;8783;52.448;4.638;2023-11-22T09:48:02;16.30;99.90
17331;DHT22;8783;52.448;4.638;2023-11-22T09:50:57;16.30;99.90
17331;DHT22;8783;52.448;4.638;2023-11-22T09:56:09;16.30;99.90
17331;DHT22;8783;52.448;4.638;2023-11-22T09:58:41;16.30;99.90
17331;DHT22;8783;52.448;4.638;2023-11-22T10:01:13;16.30;99.90
17331;DHT22;8783;52.448;4.638;2023-11-22T10:03:39;16.30;99.90
17331;DHT22;8783;52.448;4.638;2023-11-22T10:06:05;16.30;99.90
17331;DHT22;8783;52.448;4.638;2023-11-22T10:08:31;16.30;99.90
17331;DHT22;8783;52.448;4.638;2023-11-22T10:10:58;16.30;99.90
17331;DHT22;8783;52.448;4.638;2023-11-22T10:13:23;16.30;99.90
17331;DHT22;8783;52.448;4.638;2023-11-22T10:15:50;16.30;99.90
17331;DHT22;8783;52.448;4.638;2023-11-22T10:18:15;16.30;99.90
17331;DHT22;8783;52.448;4.638;2023-11-22T10:20:43;16.30;99.90
17331;DHT22;8783;52.448;4.638;2023-11-22T10:23:14;16.30;99.90
17331;DHT22;8783;52.448;4.638;2023-11-22T10:25:47;16.30;99.90
17331;DHT22;8783;52.448;4.638;2023-11-22T10:28:17;16.30;99.90
17331;DHT22;8783;52.448;4.638;2023-11-22T10:30:47;16.30;99.90
17331;DHT22;8783;52.448;4.638;2023-11-22T10:33:14;16.30;99.90
17331;DHT22;8783;52.448;4.638;2023-11-22T10:35:48;16.30;99.90
17331;DHT22;8783;52.448;4.638;2023-11-22T10:38:14;16.30;99.90
17331;DHT22;8783;52.448;4.638;2023-11-22T10:40:41;16.30;99.90
17331;DHT22;8783;52.448;4.638;2023-11-22T10:43:11;16.30;99.90
17331;DHT22;8783;52.448;4.638;2023-11-22T10:45:37;16.30;99.90
17331;DHT22;8783;52.448;4.638;2023-11-22T10:48:03;16.30;99.90
17331;DHT22;8783;52.448;4.638;2023-11-22T10:50:29;16.30;99.90
17331;DHT22;8783;52.448;4.638;2023-11-22T10:52:57;16.30;99.90
17331;DHT22;8783;52.448;4.638;2023-11-22T10:55:27;16.30;99.90
17331;DHT22;8783;52.448;4.638;2023-11-22T10:57:55;16.30;99.90
17331;DHT22;8783;52.448;4.638;2023-11-22T11:00:22;16.30;99.90
17331;DHT22;8783;52.448;4.638;2023-11-22T11:02:53;16.30;99.90
17331;DHT22;8783;52.448;4.638;2023-11-22T11:05:25;16.30;99.90
17331;DHT22;8783;52.448;4.638;2023-11-22T11:08:08;16.30;99.90
17331;DHT22;8783;52.448;4.638;2023-11-22T11:10:43;16.30;99.90
17331;DHT22;8783;52.448;4.638;2023-11-22T11:13:10;16.30;99.90
17331;DHT22;8783;52.448;4.638;2023-11-22T11:15:40;16.30;99.90
17331;DHT22;8783;52.448;4.638;2023-11-22T11:18:10;16.30;99.90
17331;DHT22;8783;52.448;4.638;2023-11-22T11:20:51;16.30;99.90
17331;DHT22;8783;52.448;4.638;2023-11-22T11:23:20;16.30;99.90
17331;DHT22;8783;52.448;4.638;2023-11-22T11:26:15;16.30;99.90
17331;DHT22;8783;52.448;4.638;2023-11-22T11:28:45;16.30;99.90
17331;DHT22;8783;52.448;4.638;2023-11-22T11:31:13;16.30;99.90
17331;DHT22;8783;52.448;4.638;2023-11-22T11:34:05;16.30;99.90
17331;DHT22;8783;52.448;4.638;2023-11-22T11:36:32;16.30;99.90
17331;DHT22;8783;52.448;4.638;2023-11-22T11:39:00;16.40;99.90
17331;DHT22;8783;52.448;4.638;2023-11-22T11:41:31;16.40;99.90
17331;DHT22;8783;52.448;4.638;2023-11-22T11:43:58;16.40;99.90
17331;DHT22;8783;52.448;4.638;2023-11-22T11:46:25;16.40;99.90
17331;DHT22;8783;52.448;4.638;2023-11-22T11:48:53;16.40;99.90
17331;DHT22;8783;52.448;4.638;2023-11-22T11:51:24;16.40;99.90
17331;DHT22;8783;52.448;4.638;2023-11-22T11:53:50;16.40;99.90
17331;DHT22;8783;52.448;4.638;2023-11-22T11:56:17;16.30;99.90
17331;DHT22;8783;52.448;4.638;2023-11-22T11:58:46;16.40;99.90
17331;DHT22;8783;52.448;4.638;2023-11-22T12:01:13;16.40;99.90
17331;DHT22;8783;52.448;4.638;2023-11-22T12:03:40;16.30;99.90
17331;DHT22;8783;52.448;4.638;2023-11-22T12:06:06;16.30;99.90
17331;DHT22;8783;52.448;4.638;2023-11-22T12:08:33;16.30;99.90
17331;DHT22;8783;52.448;4.638;2023-11-22T12:11:05;16.40;99.90
17331;DHT22;8783;52.448;4.638;2023-11-22T12:13:34;16.30;99.90
17331;DHT22;8783;52.448;4.638;2023-11-22T12:16:00;16.30;99.90
17331;DHT22;8783;52.448;4.638;2023-11-22T12:18:28;16.30;99.90
17331;DHT22;8783;52.448;4.638;2023-11-22T12:20:55;16.30;99.90
17331;DHT22;8783;52.448;4.638;2023-11-22T12:23:22;16.30;99.90
17331;DHT22;8783;52.448;4.638;2023-11-22T12:25:48;16.30;99.90
17331;DHT22;8783;52.448;4.638;2023-11-22T12:28:16;16.30;99.90
17331;DHT22;8783;52.448;4.638;2023-11-22T12:30:44;16.30;99.90
17331;DHT22;8783;52.448;4.638;2023-11-22T12:33:11;16.30;99.90
17331;DHT22;8783;52.448;4.638;2023-11-22T12:35:42;16.30;99.90
17331;DHT22;8783;52.448;4.638;2023-11-22T12:38:09;16.30;99.90
17331;DHT22;8783;52.448;4.638;2023-11-22T12:40:35;16.30;99.90
17331;DHT22;8783;52.448;4.638;2023-11-22T12:43:02;16.20;99.90
17331;DHT22;8783;52.448;4.638;2023-11-22T12:45:29;16.30;99.90
17331;DHT22;8783;52.448;4.638;2023-11-22T12:47:56;16.30;99.90
17331;DHT22;8783;52.448;4.638;2023-11-22T12:50:37;16.30;99.90
17331;DHT22;8783;52.448;4.638;2023-11-22T12:53:11;16.30;99.90
17331;DHT22;8783;52.448;4.638;2023-11-22T12:55:47;16.30;99.90
17331;DHT22;8783;52.448;4.638;2023-11-22T12:58:22;16.30;99.90
17331;DHT22;8783;52.448;4.638;2023-11-22T13:00:50;16.30;99.90
17331;DHT22;8783;52.448;4.638;2023-11-22T13:03:16;16.30;99.90
17331;DHT22;8783;52.448;4.638;2023-11-22T13:05:45;16.30;99.90
17331;DHT22;8783;52.448;4.638;2023-11-22T13:08:12;16.30;99.90
17331;DHT22;8783;52.448;4.638;2023-11-22T13:10:43;16.30;99.90
17331;DHT22;8783;52.448;4.638;2023-11-22T13:13:09;16.30;99.90
17331;DHT22;8783;52.448;4.638;2023-11-22T13:15:35;16.30;99.90
17331;DHT22;8783;52.448;4.638;2023-11-22T13:18:01;16.30;99.90
17331;DHT22;8783;52.448;4.638;2023-11-22T13:20:27;16.30;99.90
17331;DHT22;8783;52.448;4.638;2023-11-22T13:22:53;16.30;99.90
17331;DHT22;8783;52.448;4.638;2023-11-22T13:25:20;16.30;99.90
17331;DHT22;8783;52.448;4.638;2023-11-22T13:27:47;16.30;99.90
17331;DHT22;8783;52.448;4.638;2023-11-22T13:30:14;16.30;99.90
17331;DHT22;8783;52.448;4.638;2023-11-22T13:32:40;16.30;99.90
17331;DHT22;8783;52.448;4.638;2023-11-22T13:35:08;16.30;99.90
17331;DHT22;8783;52.448;4.638;2023-11-22T13:37:49;16.30;99.90
17331;DHT22;8783;52.448;4.638;2023-11-22T13:40:16;16.40;99.90
17331;DHT22;8783;52.448;4.638;2023-11-22T13:42:46;16.30;99.90
17331;DHT22;8783;52.448;4.638;2023-11-22T13:45:13;16.30;99.90
17331;DHT22;8783;52.448;4.638;2023-11-22T13:47:47;16.30;99.90
17331;DHT22;8783;52.448;4.638;2023-11-22T13:50:14;16.40;99.90
17331;DHT22;8783;52.448;4.638;2023-11-22T13:52:46;16.40;99.90
17331;DHT22;8783;52.448;4.638;2023-11-22T13:55:11;16.40;99.90
17331;DHT22;8783;52.448;4.638;2023-11-22T13:57:38;16.30;99.90
17331;DHT22;8783;52.448;4.638;2023-11-22T14:00:06;16.30;99.90
17331;DHT22;8783;52.448;4.638;2023-11-22T14:02:44;16.30;99.90
17331;DHT22;8783;52.448;4.638;2023-11-22T14:05:10;16.30;99.90
17331;DHT22;8783;52.448;4.638;2023-11-22T14:07:38;16.30;99.90
17331;DHT22;8783;52.448;4.638;2023-11-22T14:10:04;16.30;99.90
17331;DHT22;8783;52.448;4.638;2023-11-22T14:12:32;16.30;99.90
17331;DHT22;8783;52.448;4.638;2023-11-22T14:14:58;16.30;99.90
17331;DHT22;8783;52.448;4.638;2023-11-22T14:17:24;16.30;99.90
17331;DHT22;8783;52.448;4.638;2023-11-22T14:19:51;16.30;99.90
17331;DHT22;8783;52.448;4.638;2023-11-22T14:22:18;16.30;99.90
17331;DHT22;8783;52.448;4.638;2023-11-22T14:24:44;16.30;99.90
17331;DHT22;8783;52.448;4.638;2023-11-22T14:27:11;16.30;99.90
17331;DHT22;8783;52.448;4.638;2023-11-22T14:29:37;16.30;99.90
17331;DHT22;8783;52.448;4.638;2023-11-22T14:32:03;16.30;99.90
17331;DHT22;8783;52.448;4.638;2023-11-22T14:34:29;16.30;99.90
17331;DHT22;8783;52.448;4.638;2023-11-22T14:36:55;16.20;99.90
17331;DHT22;8783;52.448;4.638;2023-11-22T14:39:20;16.30;99.90
17331;DHT22;8783;52.448;4.638;2023-11-22T14:41:46;16.30;99.90
17331;DHT22;8783;52.448;4.638;2023-11-22T14:44:12;16.30;99.90
17331;DHT22;8783;52.448;4.638;2023-11-22T14:46:39;16.30;99.90
17331;DHT22;8783;52.448;4.638;2023-11-22T14:49:05;16.30;99.90
17331;DHT22;8783;52.448;4.638;2023-11-22T14:51:31;16.30;99.90
17331;DHT22;8783;52.448;4.638;2023-11-22T14:53:59;16.20;99.90
17331;DHT22;8783;52.448;4.638;2023-11-22T14:56:24;16.30;99.90
17331;DHT22;8783;52.448;4.638;2023-11-22T14:58:50;16.30;99.90
17331;DHT22;8783;52.448;4.638;2023-11-22T15:01:22;16.30;99.90
17331;DHT22;8783;52.448;4.638;2023-11-22T15:03:52;16.20;99.90
17331;DHT22;8783;52.448;4.638;2023-11-22T15:06:20;16.30;99.90
17331;DHT22;8783;52.448;4.638;2023-11-22T15:08:46;16.30;99.90
17331;DHT22;8783;52.448;4.638;2023-11-22T15:11:13;16.30;99.90
17331;DHT22;8783;52.448;4.638;2023-11-22T15:13:41;16.30;99.90
17331;DHT22;8783;52.448;4.638;2023-11-22T15:16:07;16.30;99.90
17331;DHT22;8783;52.448;4.638;2023-11-22T15:18:32;16.30;99.90
17331;DHT22;8783;52.448;4.638;2023-11-22T15:20:58;16.30;99.90
17331;DHT22;8783;52.448;4.638;2023-11-22T15:23:23;16.30;99.90
17331;DHT22;8783;52.448;4.638;2023-11-22T15:25:49;16.30;99.90
17331;DHT22;8783;52.448;4.638;2023-11-22T15:28:16;16.30;99.90
17331;DHT22;8783;52.448;4.638;2023-11-22T15:30:48;16.30;99.90
17331;DHT22;8783;52.448;4.638;2023-11-22T15:33:15;16.30;99.90
17331;DHT22;8783;52.448;4.638;2023-11-22T15:35:41;16.30;99.90
17331;DHT22;8783;52.448;4.638;2023-11-22T15:38:07;16.30;99.90
17331;DHT22;8783;52.448;4.638;2023-11-22T15:40:32;16.30;99.90
17331;DHT22;8783;52.448;4.638;2023-11-22T15:42:58;16.30;99.90
17331;DHT22;8783;52.448;4.638;2023-11-22T15:45:24;16.30;99.90
17331;DHT22;8783;52.448;4.638;2023-11-22T15:47:49;16.30;99.90